createdAt,value
2022-07-25T00:00:24.967Z,78.16
2022-07-25T00:01:21.763Z,79.87
2022-07-25T00:02:20.308Z,80.27
2022-07-25T00:03:18.568Z,81.76
2022-07-25T00:04:15.851Z,82.31
2022-07-25T00:05:13.572Z,83.10
2022-07-25T00:06:13.363Z,83.19
2022-07-25T00:07:15.991Z,83.86
2022-07-25T00:08:12.735Z,83.75
2022-07-25T00:09:10.022Z,83.02
2022-07-25T00:10:07.870Z,82.89
2022-07-25T00:11:05.809Z,83.14
2022-07-25T00:12:02.554Z,82.40
2022-07-25T00:13:02.654Z,81.91
2022-07-25T00:13:59.794Z,81.46
2022-07-25T00:14:56.537Z,82.00
2022-07-25T00:15:54.322Z,82.64
2022-07-25T00:16:51.566Z,82.84
2022-07-25T00:17:48.362Z,83.67
2022-07-25T00:18:45.261Z,84.91
2022-07-25T00:19:42.012Z,84.88
2022-07-25T00:20:38.788Z,85.26
2022-07-25T00:21:35.597Z,83.86
2022-07-25T00:22:32.612Z,84.39
2022-07-25T00:23:29.409Z,85.09
2022-07-25T00:24:26.272Z,83.79
2022-07-25T00:25:23.025Z,83.79
2022-07-25T00:26:19.757Z,83.86
2022-07-25T00:27:16.663Z,84.32
2022-07-25T00:28:13.449Z,84.12
2022-07-25T00:29:10.254Z,84.52
2022-07-25T00:30:07.738Z,84.83
2022-07-25T00:31:04.724Z,86.19
2022-07-25T00:32:01.564Z,85.81
2022-07-25T00:32:58.318Z,86.20
2022-07-25T00:33:55.160Z,86.59
2022-07-25T00:34:52.076Z,87.14
2022-07-25T00:35:48.787Z,86.70
2022-07-25T00:36:45.615Z,86.45
2022-07-25T00:37:42.373Z,87.43
2022-07-25T00:38:39.196Z,88.26
2022-07-25T00:39:36.597Z,88.52
2022-07-25T00:40:33.477Z,89.19
2022-07-25T00:41:30.379Z,90.36
2022-07-25T00:42:27.168Z,90.27
2022-07-25T00:43:23.966Z,91.25
2022-07-25T00:44:31.679Z,91.57
2022-07-25T00:45:28.641Z,91.13
2022-07-25T00:46:25.490Z,90.79
2022-07-25T00:47:23.962Z,90.01
2022-07-25T00:48:20.677Z,89.78
2022-07-25T00:49:17.578Z,90.25
2022-07-25T00:50:14.365Z,90.70
2022-07-25T00:51:12.034Z,89.48
2022-07-25T00:52:08.847Z,88.02
2022-07-25T00:53:05.718Z,88.36
2022-07-25T00:54:02.672Z,89.03
2022-07-25T00:54:59.714Z,89.10
2022-07-25T00:55:56.465Z,88.68
2022-07-25T00:56:53.354Z,88.81
2022-07-25T00:57:50.187Z,89.66
2022-07-25T00:58:46.980Z,88.84
2022-07-25T00:59:43.819Z,88.10
2022-07-25T01:00:40.710Z,88.15
2022-07-25T01:01:39.102Z,88.11
2022-07-25T01:02:37.029Z,88.45
2022-07-25T01:03:33.988Z,88.70
2022-07-25T01:04:30.847Z,88.83
2022-07-25T01:05:27.631Z,89.21
2022-07-25T01:06:25.617Z,88.93
2022-07-25T01:07:23.300Z,88.81
2022-07-25T01:08:21.658Z,88.41
2022-07-25T01:09:21.146Z,88.77
2022-07-25T01:10:17.930Z,89.46
2022-07-25T01:11:14.738Z,89.81
2022-07-25T01:12:11.479Z,89.51
2022-07-25T01:13:08.242Z,89.42
2022-07-25T01:14:06.833Z,89.58
2022-07-25T01:15:03.917Z,90.14
2022-07-25T01:16:00.949Z,89.81
2022-07-25T01:16:57.712Z,89.79
2022-07-25T01:17:54.714Z,89.56
2022-07-25T01:18:51.419Z,89.73
2022-07-25T01:19:48.242Z,91.45
2022-07-25T01:20:45.085Z,91.49
2022-07-25T01:21:45.022Z,91.34
2022-07-25T01:22:41.929Z,91.71
2022-07-25T01:23:38.727Z,91.61
2022-07-25T01:24:36.347Z,91.31
2022-07-25T01:25:33.088Z,93.81
2022-07-25T01:26:30.526Z,93.71
2022-07-25T01:27:27.282Z,93.58
2022-07-25T01:28:25.047Z,93.31
2022-07-25T01:29:22.371Z,92.25
2022-07-25T01:30:20.995Z,92.81
2022-07-25T01:31:17.990Z,93.03
2022-07-25T01:32:14.806Z,93.39
2022-07-25T01:33:17.096Z,93.00
2022-07-25T01:34:13.853Z,92.73
2022-07-25T01:35:12.359Z,91.57
2022-07-25T01:36:09.292Z,91.87
2022-07-25T01:37:06.045Z,93.10
2022-07-25T01:38:02.822Z,92.59
2022-07-25T01:38:59.677Z,92.29
2022-07-25T01:39:56.808Z,92.12
2022-07-25T01:40:53.542Z,91.99
2022-07-25T01:41:50.260Z,92.20
2022-07-25T01:42:47.016Z,92.17
2022-07-25T01:43:43.830Z,92.22
2022-07-25T01:44:40.543Z,91.55
2022-07-25T01:45:37.947Z,91.07
2022-07-25T01:46:34.765Z,91.72
2022-07-25T01:47:31.687Z,91.62
2022-07-25T01:48:28.711Z,92.20
2022-07-25T01:49:26.815Z,92.79
2022-07-25T01:50:23.866Z,92.96
2022-07-25T01:51:20.663Z,93.21
2022-07-25T01:52:17.579Z,91.92
2022-07-25T01:53:14.304Z,91.31
2022-07-25T01:54:11.133Z,91.89
2022-07-25T01:55:08.664Z,91.93
2022-07-25T01:56:06.742Z,92.64
2022-07-25T01:57:06.925Z,93.12
2022-07-25T01:58:04.018Z,94.39
2022-07-25T01:59:03.081Z,93.61
2022-07-25T02:00:00.307Z,92.86
2022-07-25T02:00:57.294Z,91.82
2022-07-25T02:01:54.109Z,91.44
2022-07-25T02:03:10.904Z,91.59
2022-07-25T02:04:08.117Z,91.91
2022-07-25T02:05:07.946Z,91.57
2022-07-25T02:06:07.982Z,91.52
2022-07-25T02:07:05.817Z,90.64
2022-07-25T02:08:03.470Z,90.97
2022-07-25T02:09:00.191Z,91.08
2022-07-25T02:09:57.157Z,91.24
2022-07-25T02:10:54.444Z,91.04
2022-07-25T02:11:51.402Z,91.71
2022-07-25T02:12:48.154Z,91.00
2022-07-25T02:13:44.930Z,91.22
2022-07-25T02:14:41.756Z,90.46
2022-07-25T02:15:38.626Z,90.61
2022-07-25T02:16:35.563Z,90.16
2022-07-25T02:17:32.388Z,89.48
2022-07-25T02:18:29.516Z,89.80
2022-07-25T02:19:26.307Z,90.23
2022-07-25T02:20:23.082Z,90.82
2022-07-25T02:21:19.859Z,91.67
2022-07-25T02:22:16.614Z,92.21
2022-07-25T02:23:13.395Z,92.21
2022-07-25T02:24:10.547Z,92.37
2022-07-25T02:25:07.659Z,92.16
2022-07-25T02:26:05.432Z,90.35
2022-07-25T02:27:02.150Z,89.18
2022-07-25T02:27:59.544Z,89.58
2022-07-25T02:28:56.319Z,90.06
2022-07-25T02:29:53.107Z,90.72
2022-07-25T02:30:50.173Z,91.12
2022-07-25T02:31:46.932Z,92.17
2022-07-25T02:32:43.648Z,92.13
2022-07-25T02:33:40.457Z,92.81
2022-07-25T02:34:37.185Z,92.53
2022-07-25T02:35:33.978Z,92.24
2022-07-25T02:36:30.832Z,91.67
2022-07-25T02:37:27.675Z,91.19
2022-07-25T02:38:24.420Z,90.43
2022-07-25T02:39:21.816Z,90.70
2022-07-25T02:40:18.587Z,91.89
2022-07-25T02:41:15.448Z,92.38
2022-07-25T02:42:12.251Z,92.76
2022-07-25T02:43:09.020Z,93.66
2022-07-25T02:44:07.250Z,94.00
2022-07-25T02:45:04.964Z,94.52
2022-07-25T02:46:01.779Z,93.96
2022-07-25T02:46:58.768Z,92.67
2022-07-25T02:47:55.552Z,91.73
2022-07-25T02:48:53.549Z,92.22
2022-07-25T02:49:50.457Z,91.61
2022-07-25T02:50:47.307Z,90.95
2022-07-25T02:51:44.141Z,90.84
2022-07-25T02:52:41.001Z,90.60
2022-07-25T02:53:56.477Z,90.30
2022-07-25T02:54:53.693Z,90.56
2022-07-25T02:55:50.436Z,90.67
2022-07-25T02:56:47.224Z,90.84
2022-07-25T02:57:43.964Z,91.17
2022-07-25T02:58:40.982Z,90.29
2022-07-25T02:59:38.539Z,90.02
2022-07-25T03:00:35.367Z,90.54
2022-07-25T03:01:32.468Z,90.80
2022-07-25T03:02:29.277Z,90.16
2022-07-25T03:03:26.090Z,90.59
2022-07-25T03:04:23.690Z,91.09
2022-07-25T03:05:20.457Z,91.16
2022-07-25T03:06:17.407Z,90.40
2022-07-25T03:07:14.182Z,90.47
2022-07-25T03:08:11.003Z,90.97
2022-07-25T03:09:07.761Z,90.46
2022-07-25T03:10:08.737Z,91.33
2022-07-25T03:11:08.351Z,90.98
2022-07-25T03:12:05.562Z,90.98
2022-07-25T03:13:03.184Z,90.71
2022-07-25T03:14:00.805Z,90.36
2022-07-25T03:14:57.611Z,90.68
2022-07-25T03:15:54.370Z,91.23
2022-07-25T03:16:51.164Z,90.88
2022-07-25T03:17:48.065Z,90.66
2022-07-25T03:18:44.797Z,90.70
2022-07-25T03:19:41.730Z,90.80
2022-07-25T03:20:38.457Z,90.35
2022-07-25T03:21:35.155Z,90.53
2022-07-25T03:22:32.147Z,90.05
2022-07-25T03:23:29.939Z,90.84
2022-07-25T03:24:26.667Z,91.17
2022-07-25T03:25:23.512Z,92.30
2022-07-25T03:26:20.519Z,92.52
2022-07-25T03:27:17.547Z,92.09
2022-07-25T03:28:14.303Z,92.39
2022-07-25T03:29:11.375Z,92.27
2022-07-25T03:30:08.983Z,91.74
2022-07-25T03:31:05.833Z,91.43
2022-07-25T03:32:02.821Z,90.22
2022-07-25T03:32:59.638Z,90.96
2022-07-25T03:33:56.856Z,90.44
2022-07-25T03:34:53.813Z,90.29
2022-07-25T03:35:50.761Z,90.29
2022-07-25T03:36:47.546Z,90.46
2022-07-25T03:37:44.440Z,91.29
2022-07-25T03:38:41.178Z,90.96
2022-07-25T03:39:37.969Z,92.04
2022-07-25T03:40:35.431Z,92.08
2022-07-25T03:41:32.346Z,91.15
2022-07-25T03:42:33.519Z,90.83
2022-07-25T03:43:32.267Z,91.22
2022-07-25T03:44:29.147Z,90.60
2022-07-25T03:45:25.926Z,91.09
2022-07-25T03:46:23.181Z,90.17
2022-07-25T03:47:20.574Z,90.82
2022-07-25T03:48:17.680Z,89.60
2022-07-25T03:49:14.570Z,90.01
2022-07-25T03:50:11.806Z,89.99
2022-07-25T03:51:10.998Z,90.44
2022-07-25T03:52:07.738Z,91.02
2022-07-25T03:53:04.462Z,90.38
2022-07-25T03:54:05.263Z,90.31
2022-07-25T03:55:02.320Z,90.53
2022-07-25T03:55:59.102Z,91.09
2022-07-25T03:56:55.876Z,90.68
2022-07-25T03:57:52.626Z,90.84
2022-07-25T03:58:49.432Z,89.61
2022-07-25T03:59:46.140Z,89.11
2022-07-25T04:00:42.957Z,89.02
2022-07-25T04:01:41.975Z,89.88
2022-07-25T04:02:38.865Z,88.74
2022-07-25T04:03:36.384Z,89.07
2022-07-25T04:04:33.678Z,87.95
2022-07-25T04:05:30.438Z,87.30
2022-07-25T04:06:28.066Z,86.77
2022-07-25T04:07:24.808Z,86.84
2022-07-25T04:08:21.587Z,85.86
2022-07-25T04:09:18.302Z,86.88
2022-07-25T04:10:15.071Z,87.06
2022-07-25T04:11:11.814Z,87.35
2022-07-25T04:12:08.743Z,86.85
2022-07-25T04:13:05.467Z,86.73
2022-07-25T04:14:03.419Z,87.49
2022-07-25T04:15:01.255Z,86.43
2022-07-25T04:15:57.994Z,87.09
2022-07-25T04:16:54.715Z,87.18
2022-07-25T04:17:51.454Z,87.37
2022-07-25T04:18:48.802Z,86.39
2022-07-25T04:19:46.287Z,86.34
2022-07-25T04:20:43.150Z,86.16
2022-07-25T04:21:39.875Z,86.10
2022-07-25T04:22:37.046Z,85.83
2022-07-25T04:23:34.334Z,85.82
2022-07-25T04:24:31.105Z,85.24
2022-07-25T04:25:27.913Z,84.93
2022-07-25T04:26:24.847Z,84.72
2022-07-25T04:27:21.566Z,84.74
2022-07-25T04:28:18.299Z,84.95
2022-07-25T04:29:15.044Z,84.80
2022-07-25T04:30:12.146Z,84.83
2022-07-25T04:31:09.014Z,84.65
2022-07-25T04:32:06.353Z,84.59
2022-07-25T04:33:03.223Z,85.31
2022-07-25T04:34:00.161Z,85.17
2022-07-25T04:34:56.968Z,85.25
2022-07-25T04:35:54.155Z,84.64
2022-07-25T04:36:50.866Z,84.42
2022-07-25T04:37:47.580Z,84.64
2022-07-25T04:38:44.431Z,84.73
2022-07-25T04:39:41.193Z,85.02
2022-07-25T04:40:38.752Z,83.66
2022-07-25T04:41:35.508Z,83.64
2022-07-25T04:42:32.351Z,83.09
2022-07-25T04:43:29.129Z,82.40
2022-07-25T04:44:26.095Z,81.91
2022-07-25T04:45:23.662Z,81.37
2022-07-25T04:46:22.359Z,81.75
2022-07-25T04:47:19.091Z,80.79
2022-07-25T04:48:15.840Z,81.63
2022-07-25T04:49:12.651Z,81.62
2022-07-25T04:50:10.173Z,81.25
2022-07-25T04:51:07.694Z,80.27
2022-07-25T04:52:04.659Z,79.98
2022-07-25T04:53:01.393Z,80.83
2022-07-25T04:53:58.160Z,80.83
2022-07-25T04:54:54.907Z,80.02
2022-07-25T04:55:51.708Z,79.55
2022-07-25T04:56:48.527Z,80.16
2022-07-25T04:57:47.280Z,80.60
2022-07-25T04:58:44.315Z,81.00
2022-07-25T04:59:41.149Z,80.57
2022-07-25T05:00:38.251Z,81.06
2022-07-25T05:01:35.527Z,80.34
2022-07-25T05:02:32.567Z,80.72
2022-07-25T05:03:29.444Z,79.91
2022-07-25T05:04:26.206Z,80.16
2022-07-25T05:05:23.933Z,79.97
2022-07-25T05:06:20.659Z,81.27
2022-07-25T05:07:17.762Z,80.45
2022-07-25T05:08:14.562Z,79.92
2022-07-25T05:09:11.322Z,79.39
2022-07-25T05:10:08.529Z,79.35
2022-07-25T05:11:05.329Z,79.73
2022-07-25T05:12:02.069Z,78.46
2022-07-25T05:12:59.829Z,78.05
2022-07-25T05:13:56.663Z,78.43
2022-07-25T05:14:55.034Z,78.75
2022-07-25T05:15:51.756Z,78.05
2022-07-25T05:16:48.607Z,77.95
2022-07-25T05:17:45.530Z,79.05
2022-07-25T05:18:42.333Z,79.20
2022-07-25T05:19:39.122Z,78.85
2022-07-25T05:20:35.891Z,79.08
2022-07-25T05:21:32.668Z,79.02
2022-07-25T05:22:29.548Z,79.19
2022-07-25T05:23:26.335Z,78.65
2022-07-25T05:24:23.156Z,77.62
2022-07-25T05:25:20.163Z,78.07
2022-07-25T05:26:16.919Z,77.24
2022-07-25T05:27:13.648Z,76.40
2022-07-25T05:28:10.395Z,74.78
2022-07-25T05:29:07.153Z,74.87
2022-07-25T05:30:05.830Z,74.71
2022-07-25T05:31:02.638Z,74.10
2022-07-25T05:31:59.520Z,73.62
2022-07-25T05:32:56.344Z,74.17
2022-07-25T05:33:53.095Z,73.66
2022-07-25T05:34:49.899Z,74.59
2022-07-25T05:35:46.699Z,75.07
2022-07-25T05:36:47.196Z,75.17
2022-07-25T05:37:44.217Z,74.49
2022-07-25T05:38:40.951Z,72.68
2022-07-25T05:39:39.887Z,71.42
2022-07-25T05:40:36.714Z,70.68
2022-07-25T05:41:33.553Z,69.07
2022-07-25T05:42:30.439Z,69.19
2022-07-25T05:43:27.694Z,69.24
2022-07-25T05:44:24.420Z,68.93
2022-07-25T05:45:21.212Z,69.77
2022-07-25T05:46:18.287Z,69.32
2022-07-25T05:47:15.766Z,68.99
2022-07-25T05:48:12.535Z,68.70
2022-07-25T05:49:09.450Z,69.31
2022-07-25T05:50:06.795Z,68.30
2022-07-25T05:51:03.743Z,68.85
2022-07-25T05:52:00.449Z,69.45
2022-07-25T05:52:57.241Z,68.69
2022-07-25T05:53:54.093Z,68.08
2022-07-25T05:54:51.027Z,68.44
2022-07-25T05:55:47.854Z,66.81
2022-07-25T05:56:44.700Z,65.77
2022-07-25T05:57:41.546Z,65.48
2022-07-25T05:58:40.514Z,66.00
2022-07-25T05:59:37.226Z,67.03
2022-07-25T06:00:33.983Z,66.17
2022-07-25T06:01:30.929Z,67.55
2022-07-25T06:02:27.823Z,66.80
2022-07-25T06:03:24.746Z,65.50
2022-07-25T06:04:26.804Z,65.96
2022-07-25T06:05:23.950Z,65.86
2022-07-25T06:06:20.807Z,66.08
2022-07-25T06:07:17.549Z,66.43
2022-07-25T06:08:15.236Z,65.78
2022-07-25T06:09:11.958Z,65.41
2022-07-25T06:10:09.704Z,65.98
2022-07-25T06:11:08.264Z,66.13
2022-07-25T06:12:06.484Z,65.01
2022-07-25T06:13:05.274Z,65.23
2022-07-25T06:14:02.159Z,64.24
2022-07-25T06:14:59.059Z,65.05
2022-07-25T06:15:57.006Z,65.59
2022-07-25T06:16:54.197Z,65.86
2022-07-25T06:17:50.955Z,65.56
2022-07-25T06:18:47.670Z,64.51
2022-07-25T06:19:44.719Z,64.76
2022-07-25T06:20:41.675Z,64.83
2022-07-25T06:21:38.436Z,64.58
2022-07-25T06:22:35.267Z,64.27
2022-07-25T06:23:32.131Z,64.41
2022-07-25T06:24:28.882Z,64.72
2022-07-25T06:25:25.718Z,63.51
2022-07-25T06:26:22.449Z,62.98
2022-07-25T06:27:21.114Z,63.86
2022-07-25T06:28:20.042Z,63.90
2022-07-25T06:29:17.039Z,64.63
2022-07-25T06:30:19.845Z,63.93
2022-07-25T06:31:18.901Z,63.42
2022-07-25T06:32:18.641Z,63.07
2022-07-25T06:33:15.401Z,62.69
2022-07-25T06:34:12.161Z,63.66
2022-07-25T06:35:09.249Z,63.53
2022-07-25T06:36:06.635Z,63.85
2022-07-25T06:37:03.727Z,63.72
2022-07-25T06:38:00.634Z,63.00
2022-07-25T06:38:57.361Z,63.70
2022-07-25T06:39:54.365Z,61.60
2022-07-25T06:40:51.227Z,61.87
2022-07-25T06:41:48.233Z,61.88
2022-07-25T06:42:47.121Z,62.00
2022-07-25T06:43:44.054Z,62.52
2022-07-25T06:44:40.993Z,63.27
2022-07-25T06:45:37.817Z,62.81
2022-07-25T06:46:35.068Z,61.80
2022-07-25T06:47:35.869Z,62.50
2022-07-25T06:48:32.987Z,62.47
2022-07-25T06:49:29.854Z,61.39
2022-07-25T06:50:26.601Z,61.82
2022-07-25T06:51:24.100Z,62.18
2022-07-25T06:52:20.846Z,61.25
2022-07-25T06:53:17.994Z,59.87
2022-07-25T06:54:15.651Z,60.89
2022-07-25T06:55:15.940Z,61.30
2022-07-25T06:56:17.478Z,60.56
2022-07-25T06:57:14.601Z,61.63
2022-07-25T06:58:11.329Z,61.51
2022-07-25T06:59:08.033Z,60.34
2022-07-25T07:00:09.671Z,59.61
2022-07-25T07:01:07.205Z,60.11
2022-07-25T07:02:04.088Z,60.59
2022-07-25T07:03:02.539Z,59.82
2022-07-25T07:03:59.372Z,59.87
2022-07-25T07:04:56.113Z,59.39
2022-07-25T07:05:52.888Z,59.57
2022-07-25T07:06:49.623Z,59.18
2022-07-25T07:07:48.051Z,59.98
2022-07-25T07:08:44.998Z,59.53
2022-07-25T07:09:44.247Z,59.97
2022-07-25T07:10:41.129Z,59.98
2022-07-25T07:11:37.868Z,59.15
2022-07-25T07:12:34.598Z,59.10
2022-07-25T07:13:32.316Z,58.40
2022-07-25T07:14:29.061Z,58.92
2022-07-25T07:15:25.812Z,56.97
2022-07-25T07:16:22.589Z,57.37
2022-07-25T07:17:19.342Z,56.84
2022-07-25T07:18:17.520Z,56.08
2022-07-25T07:19:17.404Z,55.87
2022-07-25T07:20:14.129Z,56.29
2022-07-25T07:21:11.615Z,56.22
2022-07-25T07:22:17.938Z,55.62
2022-07-25T07:23:16.905Z,55.95
2022-07-25T07:24:23.956Z,56.02
2022-07-25T07:25:21.746Z,55.50
2022-07-25T07:26:18.539Z,54.92
2022-07-25T07:27:15.356Z,53.75
2022-07-25T07:28:16.788Z,55.29
2022-07-25T07:29:13.572Z,54.36
2022-07-25T07:30:12.292Z,55.40
2022-07-25T07:31:17.426Z,54.58
2022-07-25T07:32:15.551Z,54.73
2022-07-25T07:33:12.339Z,53.33
2022-07-25T07:34:09.176Z,53.52
2022-07-25T07:35:12.318Z,54.50
2022-07-25T07:36:09.373Z,53.07
2022-07-25T07:37:06.208Z,52.87
2022-07-25T07:38:03.016Z,53.13
2022-07-25T07:38:59.737Z,53.00
2022-07-25T07:39:56.515Z,52.64
2022-07-25T07:40:54.599Z,52.44
2022-07-25T07:41:51.319Z,52.69
2022-07-25T07:42:50.351Z,52.54
2022-07-25T07:43:47.228Z,52.74
2022-07-25T07:44:44.061Z,52.48
2022-07-25T07:45:42.501Z,52.78
2022-07-25T07:46:39.304Z,52.50
2022-07-25T07:47:36.115Z,52.36
2022-07-25T07:48:33.755Z,52.07
2022-07-25T07:49:30.582Z,52.01
2022-07-25T07:50:33.885Z,51.33
2022-07-25T07:51:30.677Z,52.01
2022-07-25T07:52:27.410Z,51.78
2022-07-25T07:53:44.107Z,51.71
2022-07-25T07:54:59.817Z,50.96
2022-07-25T07:55:56.574Z,51.12
2022-07-25T07:56:53.349Z,51.16
2022-07-25T07:57:50.106Z,51.24
2022-07-25T07:58:47.234Z,50.83
2022-07-25T07:59:44.112Z,51.46
2022-07-25T08:00:41.223Z,50.56
2022-07-25T08:01:38.223Z,50.96
2022-07-25T08:02:47.083Z,50.34
2022-07-25T08:03:43.905Z,50.71
2022-07-25T08:04:40.663Z,49.67
2022-07-25T08:05:44.427Z,49.98
2022-07-25T08:06:42.962Z,50.54
2022-07-25T08:07:39.719Z,50.11
2022-07-25T08:08:36.629Z,50.56
2022-07-25T08:09:33.384Z,49.54
2022-07-25T08:10:33.111Z,49.72
2022-07-25T08:11:29.822Z,49.31
2022-07-25T08:12:26.609Z,48.93
2022-07-25T08:13:27.846Z,48.79
2022-07-25T08:14:24.752Z,48.30
2022-07-25T08:15:22.636Z,49.19
2022-07-25T08:16:19.445Z,49.68
2022-07-25T08:17:16.197Z,49.77
2022-07-25T08:18:18.026Z,49.10
2022-07-25T08:19:15.074Z,49.50
2022-07-25T08:20:35.760Z,49.25
2022-07-25T08:21:29.081Z,49.73
2022-07-25T08:22:39.059Z,48.95
2022-07-25T08:23:38.878Z,49.31
2022-07-25T08:24:35.877Z,48.83
2022-07-25T08:25:32.873Z,48.25
2022-07-25T08:26:31.241Z,47.91
2022-07-25T08:27:27.967Z,48.66
2022-07-25T08:28:24.746Z,48.12
2022-07-25T08:29:26.345Z,47.84
2022-07-25T08:30:25.540Z,47.73
2022-07-25T08:31:22.667Z,47.83
2022-07-25T08:32:19.421Z,47.79
2022-07-25T08:33:16.535Z,47.63
2022-07-25T08:34:13.752Z,48.34
2022-07-25T08:35:11.588Z,47.41
2022-07-25T08:36:10.899Z,47.53
2022-07-25T08:37:07.692Z,46.74
2022-07-25T08:38:04.969Z,45.61
2022-07-25T08:39:01.995Z,45.68
2022-07-25T08:39:58.866Z,46.24
2022-07-25T08:40:57.376Z,46.16
2022-07-25T08:41:54.282Z,46.76
2022-07-25T08:42:52.599Z,45.17
2022-07-25T08:43:50.134Z,45.81
2022-07-25T08:44:58.233Z,45.82
2022-07-25T08:45:55.688Z,45.26
2022-07-25T08:46:53.393Z,45.34
2022-07-25T08:47:52.242Z,45.05
2022-07-25T08:48:50.987Z,45.94
2022-07-25T08:49:48.470Z,46.05
2022-07-25T08:50:47.161Z,45.72
2022-07-25T08:51:44.432Z,45.38
2022-07-25T08:52:44.392Z,46.42
2022-07-25T08:53:41.382Z,46.07
2022-07-25T08:54:38.521Z,45.06
2022-07-25T08:55:35.839Z,45.49
2022-07-25T08:56:32.603Z,45.00
2022-07-25T08:57:29.396Z,45.41
2022-07-25T08:58:26.122Z,45.93
2022-07-25T08:59:22.874Z,45.96
2022-07-25T09:00:26.493Z,46.68
2022-07-25T09:01:23.403Z,46.77
2022-07-25T09:02:20.284Z,46.54
2022-07-25T09:03:17.429Z,45.98
2022-07-25T09:04:14.942Z,45.18
2022-07-25T09:05:11.668Z,45.36
2022-07-25T09:06:22.488Z,46.37
2022-07-25T09:07:40.065Z,44.85
2022-07-25T09:08:36.892Z,45.04
2022-07-25T09:09:39.027Z,44.57
2022-07-25T09:10:36.984Z,44.67
2022-07-25T09:11:37.050Z,44.39
2022-07-25T09:12:33.763Z,44.89
2022-07-25T09:13:37.800Z,44.61
2022-07-25T09:14:44.740Z,44.47
2022-07-25T09:15:53.923Z,44.60
2022-07-25T09:16:51.079Z,45.33
2022-07-25T09:17:52.437Z,44.60
2022-07-25T09:18:49.348Z,45.10
2022-07-25T09:19:54.436Z,45.40
2022-07-25T09:20:59.140Z,45.61
2022-07-25T09:22:10.023Z,45.47
2022-07-25T09:23:07.669Z,44.84
2022-07-25T09:24:17.244Z,44.47
2022-07-25T09:25:31.248Z,44.38
2022-07-25T09:26:28.190Z,44.31
2022-07-25T09:27:34.497Z,44.29
2022-07-25T09:28:31.269Z,44.46
2022-07-25T09:29:31.921Z,44.71
2022-07-25T09:30:28.963Z,44.31
2022-07-25T09:31:32.660Z,44.21
2022-07-25T09:32:29.652Z,43.56
2022-07-25T09:33:28.511Z,43.40
2022-07-25T09:34:40.019Z,42.29
2022-07-25T09:35:41.243Z,41.91
2022-07-25T09:36:39.985Z,43.01
2022-07-25T09:37:36.723Z,42.66
2022-07-25T09:38:33.598Z,43.16
2022-07-25T09:39:40.740Z,43.26
2022-07-25T09:40:41.768Z,43.52
2022-07-25T09:41:41.763Z,43.15
2022-07-25T09:42:38.999Z,43.26
2022-07-25T09:43:43.420Z,43.41
2022-07-25T09:44:40.226Z,43.48
2022-07-25T09:45:37.029Z,43.86
2022-07-25T09:46:33.780Z,43.97
2022-07-25T09:47:32.531Z,44.65
2022-07-25T09:48:29.441Z,43.86
2022-07-25T09:49:37.137Z,44.09
2022-07-25T09:50:34.112Z,43.95
2022-07-25T09:51:31.784Z,43.82
2022-07-25T09:52:28.580Z,44.29
2022-07-25T09:53:26.367Z,43.30
2022-07-25T09:54:24.113Z,43.17
2022-07-25T09:55:22.878Z,42.73
2022-07-25T09:56:19.603Z,42.76
2022-07-25T09:57:16.902Z,42.96
2022-07-25T09:58:14.034Z,42.42
2022-07-25T09:59:10.805Z,42.24
2022-07-25T10:00:09.444Z,42.66
2022-07-25T10:01:08.343Z,42.56
2022-07-25T10:02:30.051Z,42.17
2022-07-25T10:03:42.050Z,41.19
2022-07-25T10:05:11.007Z,40.75
2022-07-25T10:06:35.527Z,40.98
2022-07-25T10:07:38.635Z,41.11
2022-07-25T10:08:37.734Z,41.06
2022-07-25T10:09:48.081Z,41.01
2022-07-25T10:10:44.886Z,40.65
2022-07-25T10:12:09.067Z,41.28
2022-07-25T10:13:10.742Z,40.89
2022-07-25T10:14:12.542Z,41.14
2022-07-25T10:15:10.534Z,41.27
2022-07-25T10:16:16.872Z,42.02
2022-07-25T10:17:21.704Z,41.04
2022-07-25T10:18:27.684Z,41.08
2022-07-25T10:19:50.037Z,40.50
2022-07-25T10:20:53.373Z,39.79
2022-07-25T10:21:55.989Z,40.16
2022-07-25T10:22:57.344Z,39.42
2022-07-25T10:23:59.471Z,39.64
2022-07-25T10:25:13.356Z,39.49
2022-07-25T10:26:16.365Z,39.49
2022-07-25T10:27:23.375Z,39.32
2022-07-25T10:28:20.970Z,39.64
2022-07-25T10:29:17.849Z,40.12
2022-07-25T10:30:28.473Z,40.08
2022-07-25T10:31:34.463Z,40.21
2022-07-25T10:32:35.301Z,39.64
2022-07-25T10:33:42.572Z,38.79
2022-07-25T10:34:39.988Z,39.19
2022-07-25T10:35:36.775Z,38.81
2022-07-25T10:36:44.245Z,39.20
2022-07-25T10:37:43.740Z,38.93
2022-07-25T10:38:45.079Z,38.77
2022-07-25T10:39:50.748Z,38.72
2022-07-25T10:40:48.070Z,39.03
2022-07-25T10:41:55.824Z,39.03
2022-07-25T10:42:58.047Z,38.90
2022-07-25T10:44:02.706Z,38.97
2022-07-25T10:45:05.370Z,38.44
2022-07-25T10:46:02.567Z,38.76
2022-07-25T10:47:08.722Z,38.68
2022-07-25T10:48:11.009Z,38.10
2022-07-25T10:49:08.950Z,38.55
2022-07-25T10:50:25.438Z,38.60
2022-07-25T10:51:31.795Z,37.54
2022-07-25T10:52:30.308Z,37.46
2022-07-25T10:53:36.161Z,37.89
2022-07-25T10:54:38.499Z,38.00
2022-07-25T10:55:37.121Z,37.93
2022-07-25T10:56:36.990Z,37.81
2022-07-25T10:57:34.461Z,37.66
2022-07-25T10:58:57.209Z,37.11
2022-07-25T10:59:54.335Z,36.72
2022-07-25T11:00:51.490Z,36.78
2022-07-25T11:01:51.128Z,36.79
2022-07-25T11:02:50.105Z,36.44
2022-07-25T11:03:47.004Z,36.67
2022-07-25T11:04:46.352Z,36.69
2022-07-25T11:05:47.725Z,36.34
2022-07-25T11:06:45.294Z,36.29
2022-07-25T11:08:19.034Z,36.55
2022-07-25T11:09:23.769Z,35.95
2022-07-25T11:10:28.191Z,37.67
2022-07-25T11:11:55.617Z,37.33
2022-07-25T11:12:52.770Z,37.59
2022-07-25T11:13:50.211Z,37.88
2022-07-25T11:14:47.581Z,37.74
2022-07-25T11:15:45.168Z,38.11
2022-07-25T11:16:42.465Z,38.09
2022-07-25T11:17:49.328Z,37.88
2022-07-25T11:18:46.075Z,37.79
2022-07-25T11:19:53.320Z,38.36
2022-07-25T11:21:04.251Z,38.30
2022-07-25T11:22:06.299Z,37.94
2022-07-25T11:23:03.061Z,37.62
2022-07-25T11:23:59.835Z,37.67
2022-07-25T11:24:57.788Z,37.63
2022-07-25T11:26:14.835Z,37.12
2022-07-25T11:27:14.762Z,37.32
2022-07-25T11:28:11.639Z,36.17
2022-07-25T11:29:08.723Z,36.57
2022-07-25T11:30:15.491Z,36.33
2022-07-25T11:31:14.519Z,36.29
2022-07-25T11:32:13.472Z,36.42
2022-07-25T11:33:17.618Z,35.80
2022-07-25T11:34:15.118Z,36.44
2022-07-25T11:35:14.433Z,36.40
2022-07-25T11:36:15.169Z,36.63
2022-07-25T11:37:14.371Z,36.63
2022-07-25T11:38:14.527Z,36.57
2022-07-25T11:39:16.858Z,36.21
2022-07-25T11:40:16.767Z,37.04
2022-07-25T11:41:13.517Z,36.97
2022-07-25T11:42:16.765Z,37.66
2022-07-25T11:43:23.795Z,38.47
2022-07-25T11:44:30.860Z,38.34
2022-07-25T11:45:31.099Z,38.69
2022-07-25T11:46:28.044Z,39.15
2022-07-25T11:47:29.068Z,39.19
2022-07-25T11:48:38.890Z,39.13
2022-07-25T11:49:51.029Z,39.17
2022-07-25T11:50:47.891Z,39.11
2022-07-25T11:51:44.677Z,39.21
2022-07-25T11:52:43.335Z,38.83
2022-07-25T11:53:51.439Z,39.12
2022-07-25T11:55:03.345Z,38.15
2022-07-25T11:56:39.776Z,38.56
2022-07-25T11:57:34.419Z,38.42
2022-07-25T11:58:31.340Z,38.36
2022-07-25T11:59:28.514Z,37.81
2022-07-25T12:00:25.265Z,37.99
2022-07-25T12:01:22.038Z,37.53
2022-07-25T12:02:35.176Z,37.52
2022-07-25T12:03:38.302Z,37.97
2022-07-25T12:04:35.097Z,37.75
2022-07-25T12:05:33.547Z,37.51
2022-07-25T12:06:30.289Z,37.26
2022-07-25T12:07:47.784Z,37.49
2022-07-25T12:08:44.528Z,37.47
2022-07-25T12:09:41.326Z,37.39
2022-07-25T12:10:39.139Z,37.91
2022-07-25T12:11:35.903Z,38.27
2022-07-25T12:12:43.388Z,38.32
2022-07-25T12:13:40.107Z,38.55
2022-07-25T12:14:43.966Z,38.48
2022-07-25T12:15:41.509Z,38.28
2022-07-25T12:16:38.519Z,38.06
2022-07-25T12:17:35.531Z,38.30
2022-07-25T12:18:32.333Z,38.09
2022-07-25T12:19:29.064Z,38.05
2022-07-25T12:20:29.112Z,38.04
2022-07-25T12:21:27.569Z,38.73
2022-07-25T12:22:24.302Z,38.99
2022-07-25T12:23:23.754Z,38.78
2022-07-25T12:24:20.540Z,38.29
2022-07-25T12:25:17.727Z,38.36
2022-07-25T12:26:14.585Z,38.35
2022-07-25T12:27:11.357Z,38.71
2022-07-25T12:28:10.015Z,38.62
2022-07-25T12:29:07.146Z,39.50
2022-07-25T12:30:05.687Z,39.73
2022-07-25T12:31:02.515Z,39.56
2022-07-25T12:31:59.300Z,39.28
2022-07-25T12:32:57.507Z,39.93
2022-07-25T12:33:55.670Z,39.85
2022-07-25T12:34:52.382Z,40.24
2022-07-25T12:35:49.120Z,39.89
2022-07-25T12:36:45.972Z,39.81
2022-07-25T12:37:44.517Z,39.96